Oatmeal, Texas
Current Conditions -  °F | °C
As of 11:53 PM on Monday 20 Oct 2014 (Local Time) from KBMQ Reporting Station
Clear Clear  
Wind Chill: 65°   Ceiling: Unl
Heat Index: 65°   Visibility: 10mi
Dew Point: 57°   Wind: 0mph
Humidity: 75%   Direction: NA
Pressure: 30.08"   Gusts: NA
Location:  30.7452°N, 98.043°W
Report Text: KBMQ 210453Z AUTO 00000KT 10SM CLR 18/14 A3008 RMK AO2 SLP172 T01830139
Loading
Personal Weather Stations






























Interactive Weather Map
Tropical Storm Tracking
New forecast layout! Learn more

10-Day Weather Forecast

Advertisements
Track Severe Weather on mobile